Time;durP1;ratioP1;P1;durP2;ratioP2;P2;SDS_P1;SDS_P2;PMS_P1;PMS_P2;Temp;Humidity;BMP_temperature;BMP_pressure;BME280_temperature;BME280_humidity;BME280_pressure;Samples;Min_cycle;Max_cycle;Signal;HPM_P1;HPM_P2
2023/03/17 00:00:40;;;;;;;;;;;3.90;73.80;;;;;;5014492;28;90192;-37
2023/03/17 00:03:06;;;;;;;;;;;3.90;73.80;;;;;;5004793;28;88065;-37
2023/03/17 00:05:34;;;;;;;;;;;4.00;73.70;;;;;;5009740;28;87269;-37
2023/03/17 00:08:09;;;;;;;;;;;4.00;73.60;;;;;;5017340;28;89205;-37
2023/03/17 00:10:35;;;;;;;;;;;3.90;73.70;;;;;;5020214;28;87084;-37
2023/03/17 00:13:01;;;;;;;;;;;3.90;73.70;;;;;;5007418;28;88535;-37
2023/03/17 00:15:26;;;;;;;;;;;3.90;73.70;;;;;;5020751;28;87617;-37
2023/03/17 00:17:53;;;;;;;;;;;3.90;73.60;;;;;;5021106;28;87324;-37
2023/03/17 00:20:22;;;;;;;;;;;4.00;73.60;;;;;;5004347;28;88521;-37
2023/03/17 00:22:48;;;;;;;;;;;3.90;73.60;;;;;;5011457;28;87707;-37
2023/03/17 00:25:17;;;;;;;;;;;3.90;73.80;;;;;;5019764;28;89350;-37
2023/03/17 00:27:43;;;;;;;;;;;3.90;73.60;;;;;;5020629;28;89317;-37
2023/03/17 00:30:09;;;;;;;;;;;4.00;73.60;;;;;;5014203;28;88156;-37
2023/03/17 00:32:35;;;;;;;;;;;4.00;73.50;;;;;;5004035;28;88827;-37
2023/03/17 00:35:04;;;;;;;;;;;3.90;73.60;;;;;;5012492;28;89402;-37
2023/03/17 00:37:30;;;;;;;;;;;4.00;73.50;;;;;;5004134;28;87770;-37
2023/03/17 00:39:55;;;;;;;;;;;4.00;73.50;;;;;;5013034;28;89206;-37
2023/03/17 00:42:22;;;;;;;;;;;3.90;73.80;;;;;;5020123;28;86609;-37
2023/03/17 00:44:47;;;;;;;;;;;3.80;73.90;;;;;;5017841;28;88061;-37
2023/03/17 00:47:13;;;;;;;;;;;3.80;73.90;;;;;;5016618;28;89528;-37
2023/03/17 00:49:38;;;;;;;;;;;3.80;74.00;;;;;;5019113;28;88135;-37
2023/03/17 00:52:04;;;;;;;;;;;3.80;73.90;;;;;;5019246;28;88669;-36
2023/03/17 00:54:30;;;;;;;;;;;3.80;73.90;;;;;;5018244;28;88521;-37
2023/03/17 00:56:55;;;;;;;;;;;3.80;73.80;;;;;;5007327;28;87671;-37
2023/03/17 00:59:24;;;;;;;;;;;3.80;73.90;;;;;;5018835;28;87542;-37
2023/03/17 01:01:50;;;;;;;;;;;3.80;73.90;;;;;;5012486;28;88068;-37
2023/03/17 01:04:15;;;;;;;;;;;3.80;74.00;;;;;;5003732;28;88675;-37
2023/03/17 01:06:42;;;;;;;;;;;3.80;73.90;;;;;;5008290;28;87969;-37
2023/03/17 01:09:10;;;;;;;;;;;3.80;73.90;;;;;;5004631;28;87292;-37
2023/03/17 01:11:35;;;;;;;;;;;3.80;73.80;;;;;;5004019;28;87421;-37
2023/03/17 01:14:02;;;;;;;;;;;3.80;73.80;;;;;;5002546;28;90994;-37
2023/03/17 01:16:27;;;;;;;;;;;3.80;73.90;;;;;;5003293;28;87117;-37
2023/03/17 01:18:53;;;;;;;;;;;3.80;73.90;;;;;;5006375;28;87845;-37
2023/03/17 01:21:19;;;;;;;;;;;3.80;73.80;;;;;;5003704;28;87200;-37
2023/03/17 01:23:44;;;;;;;;;;;3.80;73.90;;;;;;5003983;28;87845;-38
2023/03/17 01:26:10;;;;;;;;;;;3.80;73.70;;;;;;5003024;28;89505;-37
2023/03/17 01:28:36;;;;;;;;;;;3.80;73.80;;;;;;5003195;28;87095;-37
2023/03/17 01:31:01;;;;;;;;;;;3.70;73.70;;;;;;5020258;28;88963;-37
2023/03/17 01:33:27;;;;;;;;;;;3.70;73.80;;;;;;5017268;28;88935;-37
2023/03/17 01:35:53;;;;;;;;;;;3.70;73.90;;;;;;5013606;28;87248;-37
2023/03/17 01:38:18;;;;;;;;;;;3.70;73.80;;;;;;5009815;28;88301;-37
2023/03/17 01:40:46;;;;;;;;;;;3.70;73.80;;;;;;5017678;28;87191;-38
2023/03/17 01:43:11;;;;;;;;;;;3.70;74.00;;;;;;5009206;28;87717;-37
2023/03/17 01:45:56;;;;;;;;;;;3.70;73.90;;;;;;5004824;28;89584;-37
2023/03/17 01:48:22;;;;;;;;;;;3.70;73.80;;;;;;5002947;28;87218;-37
2023/03/17 01:50:48;;;;;;;;;;;3.70;73.90;;;;;;5017188;28;88901;-36
2023/03/17 01:53:14;;;;;;;;;;;3.70;73.90;;;;;;5007664;28;89375;-37
2023/03/17 01:55:40;;;;;;;;;;;3.70;73.90;;;;;;5003672;28;87118;-37
2023/03/17 01:58:06;;;;;;;;;;;3.70;73.90;;;;;;5003235;28;88221;-37
2023/03/17 02:00:31;;;;;;;;;;;3.70;73.90;;;;;;5005771;28;87995;-37
2023/03/17 02:02:57;;;;;;;;;;;3.70;73.80;;;;;;5002318;28;88709;-37
2023/03/17 02:05:25;;;;;;;;;;;3.70;73.80;;;;;;5002546;28;88432;-37
2023/03/17 02:07:51;;;;;;;;;;;3.70;73.80;;;;;;5002844;28;87226;-37
2023/03/17 02:10:19;;;;;;;;;;;3.70;73.90;;;;;;5003116;28;88236;-37
2023/03/17 02:12:46;;;;;;;;;;;3.70;73.90;;;;;;5002567;28;89302;-37
2023/03/17 02:15:11;;;;;;;;;;;3.60;73.90;;;;;;5011828;28;88057;-37
2023/03/17 02:17:37;;;;;;;;;;;3.70;73.90;;;;;;5016056;28;87951;-37
2023/03/17 02:20:15;;;;;;;;;;;3.60;74.00;;;;;;5015576;28;88251;-37
2023/03/17 02:22:42;;;;;;;;;;;3.60;73.90;;;;;;5020641;28;87480;-36
2023/03/17 02:25:07;;;;;;;;;;;3.60;74.00;;;;;;5017384;28;89187;-37
2023/03/17 02:27:34;;;;;;;;;;;3.60;74.00;;;;;;5012318;28;88306;-36
2023/03/17 02:30:00;;;;;;;;;;;3.60;74.00;;;;;;5017020;28;89470;-38
2023/03/17 02:32:26;;;;;;;;;;;3.60;73.90;;;;;;5002277;28;88452;-37
2023/03/17 02:34:51;;;;;;;;;;;3.70;73.90;;;;;;5002667;28;87095;-37
2023/03/17 02:37:18;;;;;;;;;;;3.60;74.00;;;;;;5002654;28;88558;-37
2023/03/17 02:39:44;;;;;;;;;;;3.60;74.00;;;;;;5007460;28;89702;-37
2023/03/17 02:42:09;;;;;;;;;;;3.60;74.00;;;;;;5017405;28;87091;-36
2023/03/17 02:44:35;;;;;;;;;;;3.60;74.10;;;;;;5021785;28;88813;-37
2023/03/17 02:47:02;;;;;;;;;;;3.50;74.10;;;;;;5002416;28;87179;-37
2023/03/17 02:49:28;;;;;;;;;;;3.60;73.90;;;;;;5002053;28;88535;-37
2023/03/17 02:51:53;;;;;;;;;;;3.60;74.00;;;;;;5018516;28;90370;-36
2023/03/17 02:54:19;;;;;;;;;;;3.50;74.10;;;;;;5014942;28;87215;-37
2023/03/17 02:56:44;;;;;;;;;;;3.50;74.20;;;;;;5010180;28;88890;-37
2023/03/17 02:59:10;;;;;;;;;;;3.50;74.10;;;;;;5005114;28;89986;-37
2023/03/17 03:01:37;;;;;;;;;;;3.50;74.20;;;;;;5022032;28;87213;-37
2023/03/17 03:04:03;;;;;;;;;;;3.50;74.20;;;;;;5005680;28;88614;-37
2023/03/17 03:06:28;;;;;;;;;;;3.50;74.20;;;;;;5024925;28;88512;-37
2023/03/17 03:08:54;;;;;;;;;;;3.50;74.20;;;;;;5021268;28;88804;-37
2023/03/17 03:11:19;;;;;;;;;;;3.50;74.10;;;;;;5019331;28;87958;-37
2023/03/17 03:13:45;;;;;;;;;;;3.50;74.10;;;;;;5022565;28;87146;-37
2023/03/17 03:16:11;;;;;;;;;;;3.50;74.20;;;;;;5021356;28;88844;-36
2023/03/17 03:18:37;;;;;;;;;;;3.50;74.30;;;;;;5020474;28;89434;-37
2023/03/17 03:21:03;;;;;;;;;;;3.50;74.20;;;;;;5018665;28;87198;-37
2023/03/17 03:23:29;;;;;;;;;;;3.50;74.20;;;;;;5007210;28;89609;-37
2023/03/17 03:25:54;;;;;;;;;;;3.50;74.10;;;;;;5022405;28;89464;-37
2023/03/17 03:28:20;;;;;;;;;;;3.60;73.90;;;;;;5020404;28;87034;-37
2023/03/17 03:30:45;;;;;;;;;;;3.60;73.70;;;;;;5024126;28;89257;-36
2023/03/17 03:33:12;;;;;;;;;;;3.60;73.70;;;;;;5020679;28;86390;-38
2023/03/17 03:35:38;;;;;;;;;;;3.50;74.00;;;;;;5014866;28;87370;-37
2023/03/17 03:38:04;;;;;;;;;;;3.50;74.10;;;;;;5009886;28;89538;-37
2023/03/17 03:40:30;;;;;;;;;;;3.50;74.00;;;;;;5021049;28;88716;-37
2023/03/17 03:42:56;;;;;;;;;;;3.50;74.10;;;;;;5010031;28;89775;-37
2023/03/17 03:45:21;;;;;;;;;;;3.50;74.10;;;;;;5004740;28;89421;-37
2023/03/17 03:47:47;;;;;;;;;;;3.50;74.10;;;;;;5007996;28;87552;-37
2023/03/17 03:50:12;;;;;;;;;;;3.50;74.10;;;;;;5004640;28;89195;-37
2023/03/17 03:52:38;;;;;;;;;;;3.50;74.10;;;;;;5018384;28;87066;-37
2023/03/17 03:55:04;;;;;;;;;;;3.50;74.20;;;;;;5006013;28;88852;-37
2023/03/17 03:57:29;;;;;;;;;;;3.40;74.10;;;;;;5004729;28;90225;-37
2023/03/17 03:59:55;;;;;;;;;;;3.40;74.20;;;;;;5005174;28;87209;-37
2023/03/17 04:02:20;;;;;;;;;;;3.50;74.60;;;;;;5021777;28;89088;-37
2023/03/17 04:04:46;;;;;;;;;;;3.40;74.10;;;;;;5020096;28;90322;-37
2023/03/17 04:07:12;;;;;;;;;;;3.40;74.20;;;;;;5020329;28;87123;-37
2023/03/17 04:09:38;;;;;;;;;;;3.40;74.40;;;;;;5020687;28;88675;-37
2023/03/17 04:12:03;;;;;;;;;;;3.40;74.40;;;;;;5021321;28;87175;-37
2023/03/17 04:14:29;;;;;;;;;;;3.40;74.30;;;;;;5022089;28;89150;-37
2023/03/17 04:16:55;;;;;;;;;;;3.40;74.30;;;;;;5004512;28;89396;-37
2023/03/17 04:19:20;;;;;;;;;;;3.40;74.30;;;;;;5020647;28;87155;-36
2023/03/17 04:21:46;;;;;;;;;;;3.40;74.30;;;;;;5018264;28;89436;-37
2023/03/17 04:24:13;;;;;;;;;;;3.40;74.40;;;;;;5004359;28;89552;-37
2023/03/17 04:26:40;;;;;;;;;;;3.40;74.30;;;;;;5018138;28;87222;-37
2023/03/17 04:29:07;;;;;;;;;;;3.40;74.30;;;;;;5017437;28;89045;-37
2023/03/17 04:31:38;;;;;;;;;;;3.40;74.30;;;;;;5021324;28;89612;-37
2023/03/17 04:34:03;;;;;;;;;;;3.40;74.20;;;;;;5007207;28;88754;-37
2023/03/17 04:36:29;;;;;;;;;;;3.40;74.90;;;;;;5018256;28;89546;-37
2023/03/17 04:38:55;;;;;;;;;;;3.40;74.30;;;;;;5019359;28;87188;-37
2023/03/17 04:41:20;;;;;;;;;;;3.40;74.30;;;;;;5021740;28;88907;-36
2023/03/17 04:43:46;;;;;;;;;;;3.30;74.40;;;;;;5013256;28;88862;-37
2023/03/17 04:46:11;;;;;;;;;;;3.30;74.50;;;;;;5004312;28;86400;-37
2023/03/17 04:48:37;;;;;;;;;;;3.30;74.40;;;;;;5004212;28;87924;-37
2023/03/17 04:51:03;;;;;;;;;;;3.30;74.40;;;;;;5003701;28;89394;-37
2023/03/17 04:53:28;;;;;;;;;;;3.30;74.40;;;;;;5023460;28;88102;-37
2023/03/17 04:55:55;;;;;;;;;;;3.30;74.40;;;;;;5007392;28;89424;-37
2023/03/17 04:58:21;;;;;;;;;;;3.30;74.30;;;;;;5003922;28;87101;-37
2023/03/17 05:00:46;;;;;;;;;;;3.30;74.20;;;;;;5016623;28;87326;-37
2023/03/17 05:03:12;;;;;;;;;;;3.30;74.20;;;;;;5003531;28;89196;-37
2023/03/17 05:05:37;;;;;;;;;;;3.30;74.40;;;;;;5003802;28;87212;-37
2023/03/17 05:08:03;;;;;;;;;;;3.30;74.50;;;;;;5003899;28;87344;-37
2023/03/17 05:10:28;;;;;;;;;;;3.30;74.50;;;;;;5010498;28;89042;-37
2023/03/17 05:12:53;;;;;;;;;;;3.30;74.40;;;;;;5017647;28;87317;-36
2023/03/17 05:15:20;;;;;;;;;;;3.30;74.30;;;;;;5020166;28;87743;-36
2023/03/17 05:17:45;;;;;;;;;;;3.30;74.40;;;;;;5021365;28;88021;-36
2023/03/17 05:20:12;;;;;;;;;;;3.30;74.40;;;;;;5003701;28;90268;-37
2023/03/17 05:22:37;;;;;;;;;;;3.30;74.30;;;;;;5003088;28;89782;-37
2023/03/17 05:25:03;;;;;;;;;;;3.30;74.50;;;;;;5003566;28;87298;-37
2023/03/17 05:27:29;;;;;;;;;;;3.20;74.50;;;;;;5003076;28;87373;-37
2023/03/17 05:29:55;;;;;;;;;;;3.30;74.40;;;;;;5003377;28;88519;-37
2023/03/17 05:32:20;;;;;;;;;;;3.30;74.20;;;;;;5018172;28;87206;-37
2023/03/17 05:34:46;;;;;;;;;;;3.30;74.50;;;;;;5006507;28;87349;-37
2023/03/17 05:37:12;;;;;;;;;;;3.20;74.70;;;;;;5009558;28;87203;-37
2023/03/17 05:39:38;;;;;;;;;;;3.20;75.00;;;;;;5018331;28;88664;-37
2023/03/17 05:42:04;;;;;;;;;;;3.20;74.70;;;;;;5015523;28;89716;-37
2023/03/17 05:44:30;;;;;;;;;;;3.30;74.50;;;;;;5003258;28;87090;-36
2023/03/17 05:46:58;;;;;;;;;;;3.30;74.70;;;;;;5008980;28;88027;-36
2023/03/17 05:49:24;;;;;;;;;;;3.30;74.60;;;;;;5012072;28;89564;-37
2023/03/17 05:51:50;;;;;;;;;;;3.30;74.10;;;;;;5003233;28;87249;-38
2023/03/17 05:54:15;;;;;;;;;;;3.30;74.10;;;;;;5002946;28;88618;-37
2023/03/17 05:56:41;;;;;;;;;;;3.30;74.20;;;;;;5005321;28;88755;-37
2023/03/17 05:59:08;;;;;;;;;;;3.30;74.40;;;;;;5013093;28;88932;-37
2023/03/17 06:01:34;;;;;;;;;;;3.30;74.50;;;;;;5002473;28;88279;-37
2023/03/17 06:04:00;;;;;;;;;;;3.30;74.50;;;;;;5002949;28;87204;-37
2023/03/17 06:06:26;;;;;;;;;;;3.20;74.60;;;;;;5002611;28;88112;-37
2023/03/17 06:08:52;;;;;;;;;;;3.20;74.70;;;;;;5002426;28;88931;-38
2023/03/17 06:11:19;;;;;;;;;;;3.20;74.70;;;;;;5018716;28;87169;-37
2023/03/17 06:13:45;;;;;;;;;;;3.20;74.70;;;;;;5021130;28;88692;-37
2023/03/17 06:16:11;;;;;;;;;;;3.20;74.60;;;;;;5003598;28;88813;-37
2023/03/17 06:18:36;;;;;;;;;;;3.20;74.70;;;;;;5016594;28;87129;-37
2023/03/17 06:21:01;;;;;;;;;;;3.20;74.70;;;;;;5020796;28;89448;-37
2023/03/17 06:23:27;;;;;;;;;;;3.20;74.70;;;;;;5018711;28;86446;-37
2023/03/17 06:25:53;;;;;;;;;;;3.20;74.70;;;;;;5017294;28;87535;-37
2023/03/17 06:28:18;;;;;;;;;;;3.20;74.80;;;;;;5016687;28;89272;-37
2023/03/17 06:30:44;;;;;;;;;;;3.20;74.90;;;;;;5010940;28;88106;-37
2023/03/17 06:33:09;;;;;;;;;;;3.20;74.80;;;;;;5002236;28;88514;-37
2023/03/17 06:35:35;;;;;;;;;;;3.20;74.80;;;;;;5019220;28;89919;-37
2023/03/17 06:38:01;;;;;;;;;;;3.20;74.90;;;;;;5017401;28;87102;-37
2023/03/17 06:40:26;;;;;;;;;;;3.20;74.90;;;;;;5010615;28;88619;-37
2023/03/17 06:42:52;;;;;;;;;;;3.20;75.00;;;;;;5002093;28;87795;-37
2023/03/17 06:45:17;;;;;;;;;;;3.20;74.90;;;;;;5002449;28;88746;-36
2023/03/17 06:47:43;;;;;;;;;;;3.10;74.80;;;;;;5002360;28;88867;-37
2023/03/17 06:50:10;;;;;;;;;;;3.20;75.00;;;;;;5002136;28;87749;-37
2023/03/17 06:52:36;;;;;;;;;;;3.20;74.90;;;;;;5002426;28;87028;-37
2023/03/17 06:55:01;;;;;;;;;;;3.20;75.00;;;;;;5001294;28;90516;-37
2023/03/17 06:57:27;;;;;;;;;;;3.20;75.00;;;;;;5002201;28;87170;-37
2023/03/17 06:59:52;;;;;;;;;;;3.20;74.80;;;;;;5002197;28;88914;-37
2023/03/17 07:02:18;;;;;;;;;;;3.30;74.30;;;;;;5018508;28;88845;-37
2023/03/17 07:04:44;;;;;;;;;;;3.30;74.20;;;;;;5016739;28;88613;-37
2023/03/17 07:07:09;;;;;;;;;;;3.30;74.40;;;;;;5005587;28;88097;-37
2023/03/17 07:09:36;;;;;;;;;;;3.40;74.30;;;;;;5001896;28;87104;-37
2023/03/17 07:12:04;;;;;;;;;;;3.40;74.10;;;;;;5002501;28;88234;-36
2023/03/17 07:14:31;;;;;;;;;;;3.30;74.20;;;;;;5010970;28;90038;-36
2023/03/17 07:16:57;;;;;;;;;;;3.20;74.50;;;;;;5001957;28;87734;-36
2023/03/17 07:19:22;;;;;;;;;;;3.30;74.60;;;;;;5001547;28;88068;-36
2023/03/17 07:21:48;;;;;;;;;;;3.30;74.50;;;;;;5001566;28;89726;-37
2023/03/17 07:24:13;;;;;;;;;;;3.30;74.60;;;;;;5004751;28;87231;-36
2023/03/17 07:26:39;;;;;;;;;;;3.40;74.10;;;;;;5010692;28;89333;-37
2023/03/17 07:29:04;;;;;;;;;;;3.40;74.30;;;;;;5019794;28;87140;-37
2023/03/17 07:31:30;;;;;;;;;;;3.40;74.20;;;;;;5018279;28;89166;-37
2023/03/17 07:33:56;;;;;;;;;;;3.40;74.10;;;;;;5018638;28;89313;-37
2023/03/17 07:36:22;;;;;;;;;;;3.30;74.40;;;;;;5017488;28;87042;-37
2023/03/17 07:38:47;;;;;;;;;;;3.20;74.60;;;;;;5019747;28;87964;-37
2023/03/17 07:41:12;;;;;;;;;;;3.20;74.90;;;;;;5022027;28;88735;-37
2023/03/17 07:43:38;;;;;;;;;;;3.20;75.00;;;;;;5015066;28;88042;-36
2023/03/17 07:46:04;;;;;;;;;;;3.20;75.10;;;;;;5004818;28;89201;-36
2023/03/17 07:48:30;;;;;;;;;;;3.20;75.00;;;;;;5004842;28;87132;-37
2023/03/17 07:50:56;;;;;;;;;;;3.30;74.90;;;;;;5004921;28;88680;-37
2023/03/17 07:53:21;;;;;;;;;;;3.40;74.70;;;;;;5004381;28;88917;-36
2023/03/17 07:55:47;;;;;;;;;;;3.30;74.60;;;;;;5004923;28;87148;-37
2023/03/17 07:58:12;;;;;;;;;;;3.20;74.90;;;;;;5020171;28;88824;-37
2023/03/17 08:00:38;;;;;;;;;;;3.20;75.30;;;;;;5020394;28;88835;-36
2023/03/17 08:03:04;;;;;;;;;;;3.10;75.30;;;;;;5006056;28;87179;-37
2023/03/17 08:05:30;;;;;;;;;;;3.20;75.10;;;;;;5009364;28;87832;-37
2023/03/17 08:07:56;;;;;;;;;;;3.20;75.20;;;;;;5004024;28;88096;-38
2023/03/17 08:10:21;;;;;;;;;;;3.20;75.20;;;;;;5020182;28;88352;-37
2023/03/17 08:12:50;;;;;;;;;;;3.30;75.10;;;;;;5014111;28;89314;-37
2023/03/17 08:15:16;;;;;;;;;;;3.30;75.10;;;;;;5004411;28;87155;-37
2023/03/17 08:17:42;;;;;;;;;;;3.30;75.00;;;;;;5006229;28;87746;-37
2023/03/17 08:20:08;;;;;;;;;;;3.30;75.10;;;;;;5017955;28;89452;-37
2023/03/17 08:22:34;;;;;;;;;;;3.30;75.00;;;;;;5004700;28;87665;-37
2023/03/17 08:25:00;;;;;;;;;;;3.30;75.20;;;;;;5004971;28;87389;-37
2023/03/17 08:27:26;;;;;;;;;;;3.30;75.00;;;;;;5006516;28;89607;-37
2023/03/17 08:29:53;;;;;;;;;;;3.30;74.90;;;;;;5004736;28;87116;-37
2023/03/17 08:32:18;;;;;;;;;;;3.30;75.00;;;;;;5003235;28;90211;-37
2023/03/17 08:34:45;;;;;;;;;;;3.30;75.10;;;;;;5004501;28;87029;-37
2023/03/17 08:37:11;;;;;;;;;;;3.30;75.30;;;;;;5004203;28;88855;-37
2023/03/17 08:39:36;;;;;;;;;;;3.20;75.40;;;;;;5004414;28;89338;-37
2023/03/17 08:42:02;;;;;;;;;;;3.30;75.40;;;;;;5004203;28;87160;-36
2023/03/17 08:44:28;;;;;;;;;;;3.30;75.40;;;;;;5003885;28;88474;-37
2023/03/17 08:46:55;;;;;;;;;;;3.20;75.30;;;;;;5003746;28;89420;-37
2023/03/17 08:49:20;;;;;;;;;;;3.20;75.50;;;;;;5020866;28;86454;-37
2023/03/17 08:51:47;;;;;;;;;;;3.30;75.30;;;;;;5017355;28;89477;-37
2023/03/17 08:54:14;;;;;;;;;;;3.30;75.50;;;;;;5015192;28;88001;-37
2023/03/17 08:56:39;;;;;;;;;;;3.30;76.00;;;;;;5007266;28;88708;-37
2023/03/17 08:59:05;;;;;;;;;;;3.20;75.60;;;;;;5003783;28;89555;-37
2023/03/17 09:01:31;;;;;;;;;;;3.30;75.80;;;;;;5004553;28;87244;-37
2023/03/17 09:03:57;;;;;;;;;;;3.20;75.80;;;;;;5014860;28;89418;-36
2023/03/17 09:06:24;;;;;;;;;;;3.30;75.90;;;;;;5006455;28;87973;-37
2023/03/17 09:08:54;;;;;;;;;;;3.30;75.80;;;;;;5012907;28;87258;-37
2023/03/17 09:11:20;;;;;;;;;;;3.20;76.10;;;;;;5007418;28;88713;-36
2023/03/17 09:13:46;;;;;;;;;;;3.20;76.30;;;;;;5009157;28;86449;-37
2023/03/17 09:16:13;;;;;;;;;;;3.20;76.30;;;;;;5004586;28;87885;-37
2023/03/17 09:18:39;;;;;;;;;;;3.20;76.30;;;;;;5007817;28;89250;-37
2023/03/17 09:21:05;;;;;;;;;;;3.20;76.30;;;;;;5010627;28;88901;-37
2023/03/17 09:23:31;;;;;;;;;;;3.20;76.30;;;;;;5010453;28;89640;-37
2023/03/17 09:25:56;;;;;;;;;;;3.30;76.50;;;;;;5005316;28;89354;-37
2023/03/17 09:28:23;;;;;;;;;;;3.30;76.30;;;;;;5011964;28;88200;-37
2023/03/17 09:30:48;;;;;;;;;;;3.30;76.30;;;;;;5008717;28;89504;-37
2023/03/17 09:33:14;;;;;;;;;;;3.30;76.30;;;;;;5010772;28;90243;-37
2023/03/17 09:35:40;;;;;;;;;;;3.30;76.30;;;;;;5008366;28;89216;-37
2023/03/17 09:38:06;;;;;;;;;;;3.40;75.80;;;;;;5013207;28;87929;-37
2023/03/17 09:40:35;;;;;;;;;;;3.40;76.20;;;;;;5007798;28;87199;-37
2023/03/17 09:43:15;;;;;;;;;;;3.40;76.70;;;;;;5004704;28;88601;-37
2023/03/17 09:45:41;;;;;;;;;;;3.30;76.40;;;;;;5004448;28;90763;-37
2023/03/17 09:48:16;;;;;;;;;;;3.30;76.40;;;;;;5004712;28;87824;-37
2023/03/17 09:50:48;;;;;;;;;;;3.30;76.70;;;;;;5010149;28;88818;-37
2023/03/17 09:53:21;;;;;;;;;;;3.30;77.30;;;;;;5015118;28;89906;-37
2023/03/17 09:55:50;;;;;;;;;;;3.30;76.60;;;;;;5003868;28;89095;-36
2023/03/17 09:58:18;;;;;;;;;;;3.30;77.00;;;;;;5003436;28;88060;-37
2023/03/17 10:00:43;;;;;;;;;;;3.30;77.00;;;;;;5010792;28;87802;-37
2023/03/17 10:03:09;;;;;;;;;;;3.30;77.10;;;;;;5007231;28;88986;-37
2023/03/17 10:05:35;;;;;;;;;;;3.30;77.10;;;;;;5003929;28;90505;-37
2023/03/17 10:08:20;;;;;;;;;;;3.30;77.10;;;;;;5003835;28;87306;-37
2023/03/17 10:11:00;;;;;;;;;;;3.30;77.30;;;;;;5008375;28;88908;-37
2023/03/17 10:13:49;;;;;;;;;;;3.40;77.30;;;;;;5011983;28;90299;-37
2023/03/17 10:16:17;;;;;;;;;;;3.40;77.40;;;;;;5006287;28;87892;-37
2023/03/17 10:18:58;;;;;;;;;;;3.40;77.30;;;;;;5004905;28;89761;-37
2023/03/17 10:21:33;;;;;;;;;;;3.40;77.30;;;;;;5008878;28;87781;-37
2023/03/17 10:24:00;;;;;;;;;;;3.40;77.40;;;;;;5014605;28;87662;-37
2023/03/17 10:26:31;;;;;;;;;;;3.40;77.60;;;;;;5011528;28;89623;-37
2023/03/17 10:29:02;;;;;;;;;;;3.40;77.60;;;;;;5007540;28;87114;-37
2023/03/17 10:31:28;;;;;;;;;;;3.40;78.20;;;;;;5009913;28;88003;-37
2023/03/17 10:33:55;;;;;;;;;;;3.40;77.70;;;;;;5012268;28;89401;-37
2023/03/17 10:36:36;;;;;;;;;;;3.40;77.60;;;;;;5015376;28;88111;-37
2023/03/17 10:39:04;;;;;;;;;;;3.40;77.70;;;;;;5007258;28;89885;-37
2023/03/17 10:41:31;;;;;;;;;;;3.40;77.70;;;;;;5005857;28;87178;-37
2023/03/17 10:43:58;;;;;;;;;;;3.40;77.80;;;;;;5002833;28;88699;-37
2023/03/17 10:46:24;;;;;;;;;;;3.40;77.90;;;;;;5007866;28;89519;-37
2023/03/17 10:48:52;;;;;;;;;;;3.50;77.90;;;;;;5004906;28;87226;-37
2023/03/17 10:51:23;;;;;;;;;;;3.40;77.80;;;;;;5007349;28;88875;-36
2023/03/17 10:53:51;;;;;;;;;;;3.50;77.90;;;;;;5003211;28;88859;-37
2023/03/17 10:56:20;;;;;;;;;;;3.50;77.90;;;;;;5005398;28;87255;-37
2023/03/17 10:58:50;;;;;;;;;;;3.50;77.90;;;;;;5006417;28;89569;-37
2023/03/17 11:01:37;;;;;;;;;;;3.50;77.90;;;;;;5005153;28;90448;-37
2023/03/17 11:04:17;;;;;;;;;;;3.50;78.00;;;;;;5002647;28;89878;-37
2023/03/17 11:06:46;;;;;;;;;;;3.50;78.00;;;;;;5002690;28;88320;-37
2023/03/17 11:09:17;;;;;;;;;;;3.50;77.90;;;;;;5002764;28;87220;-37
2023/03/17 11:11:43;;;;;;;;;;;3.60;77.90;;;;;;5005821;28;89034;-37
2023/03/17 11:14:14;;;;;;;;;;;3.60;77.80;;;;;;5005762;28;90038;-36
2023/03/17 11:16:45;;;;;;;;;;;3.60;77.80;;;;;;5007579;28;87273;-37
2023/03/17 11:19:13;;;;;;;;;;;3.60;77.80;;;;;;5006751;28;87657;-37
2023/03/17 11:21:46;;;;;;;;;;;3.60;77.80;;;;;;5005893;28;89313;-37
2023/03/17 11:24:19;;;;;;;;;;;3.60;77.80;;;;;;5018947;28;87619;-37
2023/03/17 11:26:44;;;;;;;;;;;3.60;77.90;;;;;;5017567;28;90623;-37
2023/03/17 11:29:22;;;;;;;;;;;3.60;77.90;;;;;;5007133;28;87802;-37
2023/03/17 11:31:48;;;;;;;;;;;3.60;77.90;;;;;;5005360;28;88615;-37
2023/03/17 11:34:19;;;;;;;;;;;3.60;77.90;;;;;;5005014;28;89148;-37
2023/03/17 11:37:05;;;;;;;;;;;3.60;77.90;;;;;;5005673;28;87535;-36
2023/03/17 11:39:40;;;;;;;;;;;3.60;78.00;;;;;;5008992;28;87529;-37
2023/03/17 11:42:12;;;;;;;;;;;3.60;78.00;;;;;;5015353;28;90028;-37
2023/03/17 11:44:45;;;;;;;;;;;3.60;78.00;;;;;;5014931;28;87172;-36
2023/03/17 11:47:19;;;;;;;;;;;3.60;78.00;;;;;;5012309;28;88467;-37
2023/03/17 11:49:50;;;;;;;;;;;3.70;78.00;;;;;;5007228;28;88356;-36
2023/03/17 11:52:16;;;;;;;;;;;3.70;77.90;;;;;;5019254;28;88591;-37
2023/03/17 11:55:00;;;;;;;;;;;3.70;78.00;;;;;;5019226;28;89379;-37
2023/03/17 11:57:31;;;;;;;;;;;3.70;77.90;;;;;;5016079;28;87836;-37
2023/03/17 12:00:05;;;;;;;;;;;3.70;78.00;;;;;;5018492;28;89013;-37
2023/03/17 12:02:39;;;;;;;;;;;3.70;78.00;;;;;;5004474;28;88369;-37
2023/03/17 12:05:08;;;;;;;;;;;3.70;77.90;;;;;;5004794;28;87399;-37
2023/03/17 12:07:36;;;;;;;;;;;3.70;78.10;;;;;;5007440;28;88917;-37
2023/03/17 12:10:09;;;;;;;;;;;3.80;78.00;;;;;;5006110;28;86376;-36
2023/03/17 12:12:39;;;;;;;;;;;3.80;77.90;;;;;;5005052;28;88522;-37
2023/03/17 12:15:13;;;;;;;;;;;3.80;77.90;;;;;;5011168;28;89399;-37
2023/03/17 12:17:43;;;;;;;;;;;3.80;77.80;;;;;;5004215;28;88058;-37
2023/03/17 12:20:09;;;;;;;;;;;3.80;77.90;;;;;;5004600;28;89767;-37
2023/03/17 12:22:45;;;;;;;;;;;3.80;77.80;;;;;;5004285;28;89412;-37
2023/03/17 12:25:34;;;;;;;;;;;3.80;77.80;;;;;;5018662;28;87283;-37
2023/03/17 12:28:13;;;;;;;;;;;3.80;77.80;;;;;;5020876;28;87926;-38
2023/03/17 12:30:48;;;;;;;;;;;3.80;77.80;;;;;;5015368;28;89393;-37
2023/03/17 12:33:34;;;;;;;;;;;3.80;77.80;;;;;;5009604;28;88735;-37
2023/03/17 12:36:01;;;;;;;;;;;3.90;77.80;;;;;;4997456;28;91193;-38
2023/03/17 12:38:34;;;;;;;;;;;3.90;77.80;;;;;;5009648;28;87846;-37
2023/03/17 12:41:18;;;;;;;;;;;3.90;77.80;;;;;;5013343;28;89198;-38
2023/03/17 12:43:54;;;;;;;;;;;3.90;77.70;;;;;;5003048;28;90245;-37
2023/03/17 12:46:27;;;;;;;;;;;3.90;77.70;;;;;;5016367;28;87404;-37
2023/03/17 12:48:53;;;;;;;;;;;3.90;77.70;;;;;;5007799;28;88690;-37
2023/03/17 12:51:54;;;;;;;;;;;4.00;77.50;;;;;;5003607;28;89301;-37
2023/03/17 12:54:24;;;;;;;;;;;3.90;77.40;;;;;;4967388;28;87712;-37
2023/03/17 12:56:49;;;;;;;;;;;4.00;77.50;;;;;;4995967;28;88259;-37
2023/03/17 12:59:17;;;;;;;;;;;4.00;77.50;;;;;;5016465;28;87716;-37
2023/03/17 13:01:44;;;;;;;;;;;4.00;77.50;;;;;;5020169;28;88507;-37
2023/03/17 13:04:24;;;;;;;;;;;4.00;77.50;;;;;;5004096;28;88169;-37
2023/03/17 13:07:11;;;;;;;;;;;4.00;77.40;;;;;;5003845;28;87485;-37
2023/03/17 13:09:47;;;;;;;;;;;4.00;77.40;;;;;;5009577;28;88932;-37
2023/03/17 13:12:31;;;;;;;;;;;4.00;77.40;;;;;;5005573;28;87216;-37
2023/03/17 13:14:57;;;;;;;;;;;4.00;77.30;;;;;;5005001;28;87304;-37
2023/03/17 13:17:24;;;;;;;;;;;4.10;77.30;;;;;;5006862;28;88871;-36
2023/03/17 13:20:03;;;;;;;;;;;4.10;77.30;;;;;;5011680;28;87868;-37
2023/03/17 13:22:51;;;;;;;;;;;4.10;77.10;;;;;;5010619;28;88922;-38
2023/03/17 13:25:37;;;;;;;;;;;4.10;77.10;;;;;;4997640;28;89436;-36
2023/03/17 13:28:11;;;;;;;;;;;4.10;76.90;;;;;;5014088;28;86384;-37
2023/03/17 13:30:37;;;;;;;;;;;4.10;77.00;;;;;;5005704;28;88000;-37
2023/03/17 13:33:12;;;;;;;;;;;4.10;77.00;;;;;;5004307;28;89594;-37
2023/03/17 13:35:40;;;;;;;;;;;4.20;76.80;;;;;;5016020;28;88060;-37
2023/03/17 13:38:08;;;;;;;;;;;4.20;76.80;;;;;;5017306;28;89662;-36
2023/03/17 13:40:37;;;;;;;;;;;4.20;76.80;;;;;;5015537;28;89400;-37
2023/03/17 13:43:09;;;;;;;;;;;4.20;77.00;;;;;;5003478;28;89320;-37
2023/03/17 13:45:36;;;;;;;;;;;4.20;76.80;;;;;;5013060;28;88452;-38
2023/03/17 13:48:20;;;;;;;;;;;4.10;76.80;;;;;;5004007;28;87091;-36
2023/03/17 13:50:46;;;;;;;;;;;4.20;76.80;;;;;;5013705;28;89070;-37
2023/03/17 13:53:12;;;;;;;;;;;4.20;76.80;;;;;;5005633;28;88732;-37
2023/03/17 13:55:41;;;;;;;;;;;4.20;76.80;;;;;;5010878;28;87084;-37
2023/03/17 13:58:07;;;;;;;;;;;4.20;76.80;;;;;;5003673;28;88950;-37
2023/03/17 14:00:34;;;;;;;;;;;4.30;76.30;;;;;;5012989;28;90898;-37
2023/03/17 14:03:03;;;;;;;;;;;4.40;76.10;;;;;;5006335;28;88010;-37
2023/03/17 14:05:30;;;;;;;;;;;4.40;76.10;;;;;;5014271;28;89594;-37
2023/03/17 14:07:58;;;;;;;;;;;4.40;75.90;;;;;;5014003;28;88030;-37
2023/03/17 14:10:25;;;;;;;;;;;4.50;75.40;;;;;;5002757;28;88741;-37
2023/03/17 14:12:56;;;;;;;;;;;4.60;75.10;;;;;;5002492;28;89504;-37
2023/03/17 14:15:28;;;;;;;;;;;4.60;74.90;;;;;;5007632;28;87760;-37
2023/03/17 14:18:01;;;;;;;;;;;4.70;74.80;;;;;;5005107;28;87823;-37
2023/03/17 14:20:26;;;;;;;;;;;4.80;74.70;;;;;;5012126;28;88047;-37
2023/03/17 14:23:00;;;;;;;;;;;4.70;74.60;;;;;;5009611;28;87202;-37
2023/03/17 14:25:29;;;;;;;;;;;4.70;74.60;;;;;;5014484;28;88963;-37
2023/03/17 14:27:56;;;;;;;;;;;4.70;74.50;;;;;;5002864;28;87887;-37
2023/03/17 14:30:29;;;;;;;;;;;4.70;74.60;;;;;;5012701;28;89269;-37
2023/03/17 14:33:06;;;;;;;;;;;4.80;74.50;;;;;;5005419;28;89433;-37
2023/03/17 14:35:33;;;;;;;;;;;4.80;74.50;;;;;;5004690;28;87167;-37